Time;durP1;ratioP1;P1;durP2;ratioP2;P2;SDS_P1;SDS_P2;PMS_P1;PMS_P2;Temp;Humidity;BMP_temperature;BMP_pressure;BME280_temperature;BME280_humidity;BME280_pressure;Samples;Min_cycle;Max_cycle;Signal;HPM_P1;HPM_P2
2023/10/22 00:00:52;;;;;;;13.33;8.13;;;12.30;99.90;;;;;;5011574;28;20218;-70
2023/10/22 00:03:19;;;;;;;21.77;12.00;;;12.30;99.90;;;;;;5010681;28;20602;-70
2023/10/22 00:05:46;;;;;;;20.13;11.40;;;12.20;99.90;;;;;;5016811;28;20201;-70
2023/10/22 00:08:14;;;;;;;26.87;14.77;;;12.20;99.90;;;;;;5011959;28;20254;-71
2023/10/22 00:10:42;;;;;;;22.27;12.63;;;12.20;99.90;;;;;;5016347;28;20187;-71
2023/10/22 00:13:09;;;;;;;20.90;12.00;;;12.20;99.90;;;;;;5012409;28;20207;-69
2023/10/22 00:15:36;;;;;;;19.37;10.67;;;12.20;99.90;;;;;;5012179;28;20223;-70
2023/10/22 00:18:03;;;;;;;17.03;10.50;;;12.20;99.90;;;;;;5011989;28;20675;-70
2023/10/22 00:20:31;;;;;;;16.17;8.90;;;12.20;99.90;;;;;;5011851;28;20609;-71
2023/10/22 00:22:58;;;;;;;11.00;7.27;;;12.20;99.90;;;;;;5011678;28;20197;-70
2023/10/22 00:25:26;;;;;;;10.27;6.93;;;12.20;99.90;;;;;;5011919;28;20342;-70
2023/10/22 00:27:53;;;;;;;16.07;8.77;;;12.20;99.90;;;;;;5011998;28;20227;-70
2023/10/22 00:30:20;;;;;;;10.03;6.97;;;12.20;99.90;;;;;;5010505;28;20632;-70
2023/10/22 00:32:47;;;;;;;8.93;6.50;;;12.20;99.90;;;;;;5011758;28;20225;-70
2023/10/22 00:35:14;;;;;;;7.37;5.77;;;12.20;99.90;;;;;;5010451;28;20206;-71
2023/10/22 00:37:41;;;;;;;5.43;4.63;;;12.20;99.90;;;;;;5014767;28;20204;-71
2023/10/22 00:40:12;;;;;;;6.67;5.07;;;12.20;99.90;;;;;;5009047;28;20219;-70
2023/10/22 00:42:41;;;;;;;7.23;5.00;;;12.20;99.90;;;;;;5016982;28;20222;-71
2023/10/22 00:45:08;;;;;;;6.57;4.93;;;12.20;99.90;;;;;;5011357;28;20210;-70
2023/10/22 00:47:37;;;;;;;9.07;6.23;;;12.20;99.90;;;;;;5015579;28;20263;-71
2023/10/22 00:50:04;;;;;;;10.37;7.23;;;12.20;99.90;;;;;;5009399;28;20207;-71
2023/10/22 00:52:31;;;;;;;9.63;6.53;;;12.20;99.90;;;;;;5020143;28;20524;-69
2023/10/22 00:55:00;;;;;;;8.13;6.17;;;12.10;99.90;;;;;;5010038;28;20227;-70
2023/10/22 00:57:27;;;;;;;9.33;6.37;;;12.20;99.90;;;;;;5012644;28;20200;-71
2023/10/22 00:59:55;;;;;;;6.43;5.40;;;12.20;99.90;;;;;;5009271;28;20231;-70
2023/10/22 01:02:24;;;;;;;11.30;7.30;;;12.20;99.90;;;;;;5008422;28;20231;-71
2023/10/22 01:04:51;;;;;;;10.43;7.10;;;12.10;99.90;;;;;;5006748;28;20593;-71
2023/10/22 01:07:18;;;;;;;6.17;5.00;;;12.10;99.90;;;;;;5017036;28;20226;-70
2023/10/22 01:09:45;;;;;;;10.63;7.73;;;12.20;99.90;;;;;;5011446;28;20294;-70
2023/10/22 01:12:12;;;;;;;8.13;6.33;;;12.20;99.90;;;;;;5021842;28;20640;-71
2023/10/22 01:14:39;;;;;;;7.03;5.90;;;12.20;99.90;;;;;;5011335;28;20249;-70
2023/10/22 01:17:08;;;;;;;6.50;5.50;;;12.20;99.90;;;;;;5020270;28;20195;-70
2023/10/22 01:19:35;;;;;;;6.73;5.63;;;12.20;99.90;;;;;;5010477;28;20267;-70
2023/10/22 01:22:02;;;;;;;7.80;5.90;;;12.10;99.90;;;;;;5018708;28;20275;-71
2023/10/22 01:24:34;;;;;;;6.23;5.43;;;12.10;99.90;;;;;;4999287;28;20208;-70
2023/10/22 01:27:01;;;;;;;6.30;5.20;;;12.10;99.90;;;;;;5015852;28;20310;-70
2023/10/22 01:29:28;;;;;;;8.77;6.70;;;12.10;99.90;;;;;;5009776;28;20285;-71
2023/10/22 01:31:55;;;;;;;8.90;6.13;;;12.10;99.90;;;;;;5032353;28;20223;-70
2023/10/22 01:34:22;;;;;;;7.80;6.30;;;12.10;99.90;;;;;;5033897;28;20204;-70
2023/10/22 01:36:49;;;;;;;6.83;5.47;;;12.10;99.90;;;;;;5036974;28;20213;-70
2023/10/22 01:39:17;;;;;;;9.37;6.67;;;12.10;99.90;;;;;;5020714;28;20307;-70
2023/10/22 01:41:45;;;;;;;6.70;5.20;;;12.10;99.90;;;;;;5014307;28;20210;-71
2023/10/22 01:44:13;;;;;;;5.87;4.70;;;12.10;99.90;;;;;;5011048;28;20266;-71
2023/10/22 01:46:40;;;;;;;6.50;5.10;;;12.10;99.90;;;;;;5013126;28;20287;-70
2023/10/22 01:49:07;;;;;;;6.97;5.43;;;12.20;99.90;;;;;;5008905;28;20289;-70
2023/10/22 01:51:34;;;;;;;6.20;4.90;;;12.10;99.90;;;;;;5010519;28;20199;-70
2023/10/22 01:54:02;;;;;;;8.17;5.63;;;12.20;99.90;;;;;;5015695;28;20282;-71
2023/10/22 01:56:29;;;;;;;8.90;6.70;;;12.20;99.90;;;;;;5010525;28;20806;-70
2023/10/22 01:58:58;;;;;;;8.13;5.93;;;12.20;99.90;;;;;;5006011;28;20207;-70
2023/10/22 02:01:26;;;;;;;5.83;4.90;;;12.20;99.90;;;;;;5008684;28;20215;-70
2023/10/22 02:03:53;;;;;;;8.07;6.10;;;12.20;99.90;;;;;;5014346;28;20669;-70
2023/10/22 02:06:21;;;;;;;9.07;6.60;;;12.20;99.90;;;;;;4997500;28;20233;-70
2023/10/22 02:08:48;;;;;;;6.43;5.80;;;12.20;99.90;;;;;;5010705;28;20196;-70
2023/10/22 02:11:15;;;;;;;5.27;4.77;;;12.10;99.90;;;;;;4997558;28;20200;-70
2023/10/22 02:13:42;;;;;;;8.30;5.93;;;12.10;99.90;;;;;;5011509;28;20215;-70
2023/10/22 02:16:11;;;;;;;7.67;5.90;;;12.10;99.90;;;;;;5009866;28;20199;-70
2023/10/22 02:18:38;;;;;;;4.90;4.40;;;12.10;99.90;;;;;;5009765;28;20202;-70
2023/10/22 02:21:05;;;;;;;7.30;5.60;;;12.10;99.90;;;;;;5008258;28;20227;-70
2023/10/22 02:23:33;;;;;;;6.80;5.53;;;12.10;99.90;;;;;;5010029;28;20203;-70
2023/10/22 02:26:00;;;;;;;5.63;4.57;;;12.20;99.90;;;;;;5009328;28;20212;-70
2023/10/22 02:28:27;;;;;;;5.03;4.50;;;12.20;99.90;;;;;;5009236;28;20229;-70
2023/10/22 02:30:54;;;;;;;7.13;5.47;;;12.20;99.90;;;;;;5009741;28;20738;-70
2023/10/22 02:33:23;;;;;;;5.10;4.20;;;12.10;99.90;;;;;;5019811;28;20214;-71
2023/10/22 02:35:51;;;;;;;4.50;3.83;;;12.10;99.90;;;;;;5010007;28;20215;-70
2023/10/22 02:38:19;;;;;;;5.97;5.20;;;12.20;99.90;;;;;;5009637;28;20210;-69
2023/10/22 02:40:49;;;;;;;5.40;4.63;;;12.20;99.90;;;;;;5008874;28;20211;-70
2023/10/22 02:43:17;;;;;;;3.70;3.40;;;12.20;99.90;;;;;;5016482;28;20209;-70
2023/10/22 02:45:50;;;;;;;4.93;4.43;;;12.20;99.90;;;;;;5008464;28;20199;-70
2023/10/22 02:48:17;;;;;;;5.63;4.60;;;12.20;99.90;;;;;;5011062;28;20212;-70
2023/10/22 02:50:47;;;;;;;5.47;4.53;;;12.20;99.90;;;;;;5008116;28;20208;-70
2023/10/22 02:53:15;;;;;;;4.87;4.37;;;12.20;99.90;;;;;;5012489;28;20196;-71
2023/10/22 02:55:42;;;;;;;4.30;3.87;;;12.20;99.90;;;;;;5010338;28;20197;-70
2023/10/22 02:58:10;;;;;;;4.97;4.47;;;12.20;99.90;;;;;;5008948;28;20192;-70
2023/10/22 03:00:37;;;;;;;4.60;4.20;;;12.10;99.90;;;;;;5007862;28;20208;-69
2023/10/22 03:03:05;;;;;;;3.97;3.37;;;12.10;99.90;;;;;;5011032;28;20204;-70
2023/10/22 03:05:32;;;;;;;4.23;3.60;;;12.10;99.90;;;;;;5005028;28;20307;-70
2023/10/22 03:08:01;;;;;;;5.83;3.77;;;12.20;99.90;;;;;;5000795;28;20226;-70
2023/10/22 03:10:28;;;;;;;3.63;3.33;;;12.20;99.90;;;;;;5015839;28;20201;-70
2023/10/22 03:12:57;;;;;;;3.30;3.00;;;12.20;99.90;;;;;;5002436;28;20238;-71
2023/10/22 03:15:24;;;;;;;3.50;3.20;;;12.20;99.90;;;;;;5013144;28;20221;-70
2023/10/22 03:17:56;;;;;;;5.60;4.70;;;12.20;99.90;;;;;;5013051;28;20258;-70
2023/10/22 03:20:23;;;;;;;5.47;4.60;;;12.20;99.90;;;;;;5011585;28;20266;-70
2023/10/22 03:22:51;;;;;;;5.90;5.00;;;12.20;99.90;;;;;;5008748;28;20592;-70
2023/10/22 03:25:23;;;;;;;4.90;4.40;;;12.10;99.90;;;;;;5016608;28;20665;-70
2023/10/22 03:27:50;;;;;;;4.13;3.73;;;12.10;99.90;;;;;;5005825;28;20247;-69
2023/10/22 03:30:17;;;;;;;4.27;3.83;;;12.10;99.90;;;;;;5015673;28;20223;-70
2023/10/22 03:32:44;;;;;;;4.07;3.67;;;12.10;99.90;;;;;;5005192;28;20209;-71
2023/10/22 03:35:13;;;;;;;4.17;3.77;;;12.10;99.90;;;;;;5015459;28;20212;-70
2023/10/22 03:37:40;;;;;;;4.90;4.43;;;12.10;99.90;;;;;;5013141;28;20203;-71
2023/10/22 03:40:10;;;;;;;3.93;3.30;;;12.10;99.90;;;;;;5014480;28;20219;-70
2023/10/22 03:42:38;;;;;;;4.20;3.60;;;12.10;99.90;;;;;;5011321;28;20202;-70
2023/10/22 03:45:07;;;;;;;6.03;4.30;;;12.10;99.90;;;;;;5013366;28;20573;-70
2023/10/22 03:47:34;;;;;;;5.73;4.17;;;12.10;99.90;;;;;;5012705;28;20290;-70
2023/10/22 03:50:01;;;;;;;4.17;3.77;;;12.10;99.90;;;;;;5012233;28;20608;-71
2023/10/22 03:52:28;;;;;;;7.07;4.63;;;12.10;99.90;;;;;;5013302;28;20201;-70
2023/10/22 03:54:55;;;;;;;4.93;4.33;;;12.10;99.90;;;;;;5012917;28;20195;-70
2023/10/22 03:57:22;;;;;;;8.53;5.07;;;12.10;99.90;;;;;;5008424;28;20271;-70
2023/10/22 03:59:50;;;;;;;6.03;4.00;;;12.10;99.90;;;;;;5014970;28;20691;-70
2023/10/22 04:02:17;;;;;;;6.10;4.60;;;12.10;99.90;;;;;;5008971;28;20189;-70
2023/10/22 04:04:44;;;;;;;6.43;4.30;;;12.10;99.90;;;;;;5014004;28;20200;-70
2023/10/22 04:07:12;;;;;;;7.63;5.13;;;12.10;99.90;;;;;;5012319;28;20309;-70
2023/10/22 04:09:39;;;;;;;8.67;5.30;;;12.10;99.90;;;;;;5007077;28;20208;-70
2023/10/22 04:12:08;;;;;;;11.43;7.40;;;12.10;99.90;;;;;;5006264;28;20254;-70
2023/10/22 04:14:35;;;;;;;8.60;6.83;;;12.10;99.90;;;;;;5008234;28;20599;-70
2023/10/22 04:17:03;;;;;;;13.30;9.33;;;12.00;99.90;;;;;;5012249;28;20223;-70
2023/10/22 04:19:31;;;;;;;15.37;10.77;;;12.10;99.90;;;;;;5010959;28;20205;-70
2023/10/22 04:21:58;;;;;;;11.57;8.17;;;12.00;99.90;;;;;;5010421;28;20213;-70
2023/10/22 04:24:25;;;;;;;9.47;7.00;;;12.00;99.90;;;;;;5012148;28;20639;-70
2023/10/22 04:26:52;;;;;;;7.33;5.80;;;12.00;99.90;;;;;;5010509;28;20204;-70
2023/10/22 04:29:19;;;;;;;5.90;4.87;;;12.00;99.90;;;;;;5012220;28;20210;-70
2023/10/22 04:31:46;;;;;;;6.00;5.37;;;12.00;99.90;;;;;;5011710;28;20656;-70
2023/10/22 04:34:14;;;;;;;5.87;5.20;;;12.00;99.90;;;;;;5011705;28;20628;-70
2023/10/22 04:36:42;;;;;;;6.17;5.20;;;12.00;99.90;;;;;;5010894;28;20204;-70
2023/10/22 04:39:10;;;;;;;6.00;5.03;;;12.00;99.90;;;;;;5010973;28;20653;-70
2023/10/22 04:41:37;;;;;;;4.80;4.27;;;12.10;99.90;;;;;;5009722;28;20219;-70
2023/10/22 04:44:05;;;;;;;4.77;4.20;;;12.00;99.90;;;;;;5012372;28;20216;-70
2023/10/22 04:46:32;;;;;;;5.77;4.83;;;12.10;99.90;;;;;;5011126;28;20572;-70
2023/10/22 04:49:00;;;;;;;5.37;4.77;;;12.00;99.90;;;;;;5014264;28;20207;-71
2023/10/22 04:51:28;;;;;;;8.83;6.60;;;12.00;99.90;;;;;;5004481;28;20221;-70
2023/10/22 04:53:55;;;;;;;8.10;6.23;;;12.00;99.90;;;;;;5014971;28;20494;-70
2023/10/22 04:56:24;;;;;;;7.67;6.10;;;12.00;99.90;;;;;;5012529;28;20604;-70
2023/10/22 04:58:51;;;;;;;13.53;9.67;;;12.00;99.90;;;;;;5011132;28;20568;-71
2023/10/22 05:01:18;;;;;;;12.30;8.53;;;12.00;99.90;;;;;;5012274;28;20238;-71
2023/10/22 05:03:45;;;;;;;15.30;10.47;;;12.00;99.90;;;;;;5011638;28;20310;-71
2023/10/22 05:06:12;;;;;;;18.33;11.97;;;12.00;99.90;;;;;;5011507;28;20289;-71
2023/10/22 05:08:41;;;;;;;16.33;11.17;;;12.00;99.90;;;;;;5010105;28;20218;-70
2023/10/22 05:11:13;;;;;;;13.57;9.57;;;12.00;99.90;;;;;;5024044;28;20200;-71
2023/10/22 05:13:40;;;;;;;16.57;10.63;;;11.90;99.90;;;;;;5010749;28;20203;-70
2023/10/22 05:16:10;;;;;;;13.97;10.23;;;11.90;99.90;;;;;;5021587;28;20257;-71
2023/10/22 05:18:37;;;;;;;16.40;10.97;;;11.90;99.90;;;;;;5011101;28;20281;-71
2023/10/22 05:21:05;;;;;;;15.30;10.37;;;11.90;99.90;;;;;;5020115;28;20314;-71
2023/10/22 05:23:33;;;;;;;13.13;8.97;;;11.90;99.90;;;;;;5007471;28;20203;-71
2023/10/22 05:26:07;;;;;;;12.50;8.60;;;11.80;99.90;;;;;;5018753;28;20264;-71
2023/10/22 05:28:34;;;;;;;14.37;9.83;;;11.90;99.90;;;;;;5010949;28;20219;-70
2023/10/22 05:31:02;;;;;;;15.97;10.60;;;11.80;99.90;;;;;;5007572;28;20192;-70
2023/10/22 05:33:29;;;;;;;16.73;11.17;;;11.90;99.90;;;;;;5006595;28;20239;-70
2023/10/22 05:35:56;;;;;;;12.47;8.57;;;11.90;99.90;;;;;;5014653;28;20203;-70
2023/10/22 05:38:23;;;;;;;14.00;9.77;;;11.90;99.90;;;;;;5009720;28;20202;-69
2023/10/22 05:40:50;;;;;;;9.60;7.20;;;11.80;99.90;;;;;;5011693;28;20218;-71
2023/10/22 05:43:18;;;;;;;10.80;7.40;;;11.80;99.90;;;;;;5010382;28;20195;-70
2023/10/22 05:45:45;;;;;;;12.10;8.07;;;11.90;99.90;;;;;;5014849;28;20191;-70
2023/10/22 05:48:12;;;;;;;9.63;6.70;;;11.90;99.90;;;;;;5010321;28;20554;-70
2023/10/22 05:50:40;;;;;;;11.17;8.00;;;11.90;99.90;;;;;;5013473;28;20601;-70
2023/10/22 05:53:07;;;;;;;10.70;7.67;;;11.90;99.90;;;;;;5015645;28;20275;-71
2023/10/22 05:55:34;;;;;;;9.90;6.90;;;11.90;99.90;;;;;;5013007;28;20202;-71
2023/10/22 05:58:01;;;;;;;7.47;5.37;;;11.90;99.90;;;;;;5007557;28;20255;-71
2023/10/22 06:00:30;;;;;;;5.83;4.90;;;12.00;99.90;;;;;;5010656;28;20309;-71
2023/10/22 06:02:57;;;;;;;6.30;4.90;;;11.90;99.90;;;;;;5006613;28;20637;-70
2023/10/22 06:05:24;;;;;;;5.33;4.33;;;11.90;99.90;;;;;;5015199;28;20192;-71
2023/10/22 06:07:52;;;;;;;5.27;4.40;;;11.90;99.90;;;;;;5010652;28;20232;-71
2023/10/22 06:10:19;;;;;;;4.27;3.87;;;11.90;99.90;;;;;;5013167;28;20202;-71
2023/10/22 06:12:46;;;;;;;4.73;4.23;;;12.00;99.90;;;;;;5010327;28;20290;-71
2023/10/22 06:15:13;;;;;;;5.07;4.40;;;12.00;99.90;;;;;;5013447;28;20196;-70
2023/10/22 06:17:42;;;;;;;5.30;4.63;;;12.00;99.90;;;;;;5010388;28;20662;-70
2023/10/22 06:20:12;;;;;;;5.70;4.73;;;12.00;99.90;;;;;;5011589;28;20189;-71
2023/10/22 06:22:39;;;;;;;6.10;4.77;;;12.00;99.90;;;;;;5010474;28;20204;-70
2023/10/22 06:25:07;;;;;;;7.73;5.57;;;12.00;99.90;;;;;;5010287;28;20197;-70
2023/10/22 06:27:34;;;;;;;6.20;4.90;;;12.00;99.90;;;;;;5010456;28;20229;-72
2023/10/22 06:30:01;;;;;;;6.50;5.40;;;11.90;99.90;;;;;;5010604;28;20334;-71
2023/10/22 06:32:28;;;;;;;5.37;4.87;;;12.00;99.90;;;;;;5010378;28;20230;-71
2023/10/22 06:34:57;;;;;;;4.73;3.93;;;11.90;99.90;;;;;;5008840;28;20218;-70
2023/10/22 06:37:24;;;;;;;4.33;3.67;;;12.00;99.90;;;;;;5009411;28;20278;-70
2023/10/22 06:39:54;;;;;;;6.77;5.20;;;12.00;99.90;;;;;;5010102;28;20278;-70
2023/10/22 06:42:22;;;;;;;5.77;4.73;;;12.10;99.90;;;;;;5008870;28;20545;-72
2023/10/22 06:44:50;;;;;;;4.13;3.73;;;12.10;99.90;;;;;;5009914;28;20271;-71
2023/10/22 06:47:17;;;;;;;8.37;5.90;;;12.10;99.90;;;;;;5016609;28;20200;-70
2023/10/22 06:49:44;;;;;;;7.47;5.73;;;12.10;99.90;;;;;;5008028;28;20730;-70
2023/10/22 06:52:12;;;;;;;9.30;6.50;;;12.10;99.90;;;;;;5014174;28;20319;-70
2023/10/22 06:54:39;;;;;;;8.87;6.83;;;12.10;99.90;;;;;;5009681;28;20559;-70
2023/10/22 06:57:06;;;;;;;11.93;8.10;;;12.10;99.90;;;;;;5013255;28;20199;-71
2023/10/22 06:59:33;;;;;;;10.57;7.60;;;12.10;99.90;;;;;;5012097;28;20690;-70
2023/10/22 07:02:00;;;;;;;8.10;6.20;;;12.00;99.90;;;;;;5014498;28;20252;-70
2023/10/22 07:04:27;;;;;;;8.00;5.83;;;12.00;99.90;;;;;;5005533;28;20196;-70
2023/10/22 07:06:54;;;;;;;7.00;5.40;;;12.00;99.90;;;;;;5005210;28;20291;-70
2023/10/22 07:09:23;;;;;;;6.80;5.80;;;12.00;99.90;;;;;;5013296;28;20200;-70
2023/10/22 07:11:50;;;;;;;9.87;6.43;;;12.00;99.90;;;;;;5022302;28;20672;-71
2023/10/22 07:14:17;;;;;;;7.20;5.37;;;12.00;99.90;;;;;;5014012;28;20199;-71
2023/10/22 07:16:44;;;;;;;5.90;4.50;;;12.00;99.90;;;;;;5022590;28;20199;-71
2023/10/22 07:19:11;;;;;;;5.37;4.47;;;12.00;99.90;;;;;;5014047;28;20223;-70
2023/10/22 07:21:38;;;;;;;5.50;4.53;;;12.10;99.90;;;;;;5021483;28;20306;-71
2023/10/22 07:24:09;;;;;;;4.10;3.70;;;12.10;99.90;;;;;;5013100;28;20231;-70
2023/10/22 07:26:37;;;;;;;4.10;3.70;;;12.10;99.90;;;;;;5018725;28;20643;-71
2023/10/22 07:29:05;;;;;;;3.33;3.03;;;12.30;99.90;;;;;;5008489;28;20275;-70
2023/10/22 07:31:32;;;;;;;5.03;4.07;;;12.20;99.90;;;;;;5018329;28;20185;-70
2023/10/22 07:33:59;;;;;;;5.60;4.20;;;12.10;99.90;;;;;;5013680;28;20198;-71
2023/10/22 07:36:29;;;;;;;3.90;3.50;;;12.20;99.90;;;;;;5016730;28;20190;-71
2023/10/22 07:38:56;;;;;;;6.00;4.10;;;12.20;99.90;;;;;;5013044;28;20306;-70
2023/10/22 07:41:24;;;;;;;5.17;4.00;;;12.20;99.90;;;;;;5014741;28;20218;-71
2023/10/22 07:43:53;;;;;;;6.90;4.80;;;12.20;99.90;;;;;;5013256;28;20282;-71
2023/10/22 07:46:21;;;;;;;3.67;3.37;;;12.20;99.90;;;;;;5014184;28;20202;-70
2023/10/22 07:48:48;;;;;;;6.17;4.83;;;12.20;99.90;;;;;;5011213;28;20234;-71
2023/10/22 07:51:17;;;;;;;8.30;6.00;;;12.30;99.90;;;;;;5013411;28;20202;-71
2023/10/22 07:53:45;;;;;;;5.33;4.53;;;12.30;99.90;;;;;;5013646;28;20292;-70
2023/10/22 07:56:15;;;;;;;5.30;4.57;;;12.30;99.90;;;;;;5012838;28;20250;-70
2023/10/22 07:58:42;;;;;;;5.07;4.30;;;12.30;99.90;;;;;;5012128;28;20659;-71
2023/10/22 08:01:11;;;;;;;6.57;5.20;;;12.30;99.90;;;;;;5012219;28;20215;-70
2023/10/22 08:03:38;;;;;;;6.00;4.57;;;12.30;99.90;;;;;;5016971;28;20204;-70
2023/10/22 08:06:06;;;;;;;5.23;4.47;;;12.30;99.90;;;;;;5003974;28;20607;-71
2023/10/22 08:08:34;;;;;;;5.77;4.43;;;12.30;99.90;;;;;;5020098;28;20300;-70
2023/10/22 08:11:02;;;;;;;5.47;4.30;;;12.30;99.90;;;;;;5012713;28;20207;-72
2023/10/22 08:13:30;;;;;;;5.60;4.77;;;12.30;99.90;;;;;;5018680;28;20195;-71
2023/10/22 08:15:57;;;;;;;4.43;4.03;;;12.30;99.90;;;;;;5010629;28;20213;-70
2023/10/22 08:18:27;;;;;;;4.57;4.00;;;12.40;99.90;;;;;;5016879;28;20514;-71
2023/10/22 08:20:54;;;;;;;4.77;4.23;;;12.50;99.90;;;;;;5012211;28;20196;-71
2023/10/22 08:23:21;;;;;;;4.30;3.90;;;12.50;99.90;;;;;;5013903;28;20211;-70
2023/10/22 08:25:52;;;;;;;4.40;4.00;;;12.50;99.90;;;;;;5009378;28;20230;-70
2023/10/22 08:28:23;;;;;;;6.23;5.20;;;12.50;99.90;;;;;;5011689;28;20212;-70
2023/10/22 08:30:50;;;;;;;15.77;10.47;;;13.30;99.90;;;;;;5010815;28;20687;-71
2023/10/22 08:33:18;;;;;;;13.10;9.10;;;12.60;99.90;;;;;;5010472;28;20291;-71
2023/10/22 08:35:47;;;;;;;9.73;7.83;;;12.50;99.90;;;;;;5012056;28;20591;-70
2023/10/22 08:38:15;;;;;;;9.03;7.23;;;12.50;99.90;;;;;;5012610;28;20196;-71
2023/10/22 08:40:43;;;;;;;8.20;6.03;;;12.50;99.90;;;;;;5011105;28;20697;-71
2023/10/22 08:43:17;;;;;;;6.53;5.67;;;12.50;99.90;;;;;;5018452;28;20208;-71
2023/10/22 08:45:46;;;;;;;5.50;4.90;;;12.50;99.90;;;;;;5010322;28;20213;-69
2023/10/22 08:48:14;;;;;;;8.03;6.13;;;12.50;99.90;;;;;;5015560;28;20197;-70
2023/10/22 08:50:44;;;;;;;10.53;6.97;;;12.50;99.90;;;;;;5011083;28;20278;-71
2023/10/22 08:53:15;;;;;;;11.93;8.73;;;12.50;99.90;;;;;;5013807;28;20785;-70
2023/10/22 08:55:45;;;;;;;11.30;8.00;;;12.50;99.90;;;;;;5011830;28;20193;-70
2023/10/22 08:58:15;;;;;;;7.53;5.83;;;12.60;99.90;;;;;;5012883;28;20290;-70
2023/10/22 09:00:45;;;;;;;9.13;6.53;;;12.60;99.90;;;;;;5009754;28;20224;-70
2023/10/22 09:03:14;;;;;;;8.80;6.33;;;12.60;99.90;;;;;;5012424;28;20213;-71
2023/10/22 09:05:42;;;;;;;6.77;5.73;;;12.60;99.90;;;;;;4996428;28;20201;-70
2023/10/22 09:08:14;;;;;;;10.27;7.60;;;12.60;99.90;;;;;;5014400;28;20266;-71
2023/10/22 09:10:43;;;;;;;14.67;9.47;;;12.60;99.90;;;;;;5011675;28;20607;-71
2023/10/22 09:13:13;;;;;;;10.93;7.50;;;12.60;99.90;;;;;;5016469;28;20186;-70
2023/10/22 09:15:44;;;;;;;9.23;6.77;;;12.60;99.90;;;;;;5012176;28;20208;-71
2023/10/22 09:18:12;;;;;;;7.47;6.07;;;12.60;99.90;;;;;;5015886;28;20686;-70
2023/10/22 09:20:39;;;;;;;6.20;5.10;;;12.60;99.90;;;;;;4995954;28;20676;-71
2023/10/22 09:23:14;;;;;;;5.63;4.87;;;12.60;99.90;;;;;;5013765;28;20216;-71
2023/10/22 09:25:43;;;;;;;5.10;4.43;;;12.70;99.90;;;;;;4995799;28;20238;-71
2023/10/22 09:28:20;;;;;;;5.87;4.73;;;12.70;99.90;;;;;;5016227;28;20247;-70
2023/10/22 09:30:47;;;;;;;6.43;4.70;;;12.70;99.90;;;;;;5010370;28;20281;-71
2023/10/22 09:33:21;;;;;;;4.43;3.87;;;12.80;99.90;;;;;;5014634;28;20634;-71
2023/10/22 09:36:02;;;;;;;4.20;3.80;;;12.80;99.90;;;;;;5011327;28;20663;-71
2023/10/22 09:38:43;;;;;;;4.47;4.00;;;12.80;99.90;;;;;;5007018;28;20207;-71
2023/10/22 09:41:13;;;;;;;4.67;4.20;;;12.90;99.90;;;;;;5011099;28;20564;-70
2023/10/22 09:43:41;;;;;;;5.83;5.10;;;12.90;99.90;;;;;;5010621;28;20734;-71
2023/10/22 09:46:09;;;;;;;5.50;4.87;;;12.90;99.90;;;;;;5009210;28;20240;-71
2023/10/22 09:48:36;;;;;;;4.53;4.07;;;13.00;99.90;;;;;;5011085;28;20263;-70
2023/10/22 09:51:07;;;;;;;5.60;4.50;;;13.00;99.90;;;;;;5010498;28;20244;-71
2023/10/22 09:53:40;;;;;;;4.53;4.07;;;13.10;99.90;;;;;;5018794;28;20197;-71
2023/10/22 09:56:17;;;;;;;4.60;3.93;;;13.10;99.90;;;;;;5009848;28;20248;-71
2023/10/22 09:58:44;;;;;;;6.33;4.83;;;13.20;99.90;;;;;;5010871;28;20590;-71
2023/10/22 10:01:15;;;;;;;6.30;5.27;;;13.20;99.90;;;;;;5009735;28;20311;-71
2023/10/22 10:03:43;;;;;;;6.40;5.10;;;13.30;99.90;;;;;;5013229;28;20230;-71
2023/10/22 10:06:14;;;;;;;6.67;5.40;;;13.30;99.90;;;;;;5010332;28;20267;-70
2023/10/22 10:08:44;;;;;;;10.60;7.87;;;13.30;99.90;;;;;;5012132;28;20251;-71
2023/10/22 10:11:14;;;;;;;8.77;7.20;;;13.40;99.90;;;;;;5011133;28;20293;-71
2023/10/22 10:13:41;;;;;;;7.30;5.90;;;13.40;99.90;;;;;;5014545;28;20220;-70
2023/10/22 10:16:09;;;;;;;6.27;5.23;;;13.50;99.90;;;;;;5009950;28;20202;-71
2023/10/22 10:19:01;;;;;;;6.23;4.60;;;13.50;99.90;;;;;;5010124;28;20583;-70
2023/10/22 10:21:43;;;;;;;4.70;4.30;;;13.50;99.90;;;;;;4997818;28;20308;-71
2023/10/22 10:24:19;;;;;;;5.10;4.60;;;13.60;99.90;;;;;;5009631;28;20206;-71
2023/10/22 10:26:55;;;;;;;3.80;3.50;;;13.60;99.90;;;;;;5006962;28;20233;-71
2023/10/22 10:29:24;;;;;;;4.80;4.17;;;13.80;99.90;;;;;;4995473;28;20301;-70
2023/10/22 10:31:52;;;;;;;4.30;3.77;;;13.70;99.90;;;;;;5006131;28;20199;-71
2023/10/22 10:34:31;;;;;;;4.17;3.77;;;13.80;99.90;;;;;;5010939;28;20558;-71
2023/10/22 10:37:09;;;;;;;4.70;4.30;;;13.80;99.90;;;;;;5009251;28;20225;-71
2023/10/22 10:39:42;;;;;;;4.30;3.90;;;13.80;99.90;;;;;;5003627;28;20278;-71
2023/10/22 10:42:11;;;;;;;4.07;3.73;;;13.90;99.90;;;;;;5010182;28;20217;-71
2023/10/22 10:45:04;;;;;;;3.70;3.40;;;13.90;99.90;;;;;;5010157;28;20198;-70
2023/10/22 10:47:32;;;;;;;4.10;3.70;;;14.00;99.90;;;;;;4999628;28;20211;-71
2023/10/22 10:50:03;;;;;;;3.87;3.53;;;14.00;99.90;;;;;;5018278;28;20209;-70
2023/10/22 10:52:32;;;;;;;4.77;4.00;;;14.00;99.90;;;;;;5000631;28;20286;-71
2023/10/22 10:55:00;;;;;;;4.23;3.63;;;14.00;99.90;;;;;;5009393;28;20195;-71
2023/10/22 10:57:36;;;;;;;4.13;3.70;;;14.00;99.90;;;;;;5008047;28;20206;-71
2023/10/22 11:00:05;;;;;;;4.13;3.67;;;14.10;99.90;;;;;;5015363;28;20199;-71
2023/10/22 11:02:41;;;;;;;3.97;3.57;;;14.10;99.90;;;;;;5019837;28;20223;-71
2023/10/22 11:05:12;;;;;;;4.13;3.73;;;14.10;99.90;;;;;;5002498;28;20238;-71
2023/10/22 11:07:40;;;;;;;4.47;3.60;;;14.20;99.90;;;;;;5006015;28;20720;-71
2023/10/22 11:10:12;;;;;;;3.63;3.33;;;14.20;99.90;;;;;;5005682;28;20230;-70
2023/10/22 11:12:41;;;;;;;3.97;3.57;;;14.30;99.90;;;;;;5009755;28;20200;-71
2023/10/22 11:15:10;;;;;;;4.30;3.90;;;14.30;99.90;;;;;;5008443;28;20281;-71
2023/10/22 11:17:38;;;;;;;3.20;2.90;;;14.30;99.90;;;;;;5007688;28;20210;-71
2023/10/22 11:20:07;;;;;;;3.33;3.03;;;14.30;99.90;;;;;;5017540;28;20609;-71
2023/10/22 11:22:41;;;;;;;4.27;3.87;;;14.40;99.90;;;;;;5007034;28;20242;-72
2023/10/22 11:25:10;;;;;;;4.63;3.80;;;14.40;99.90;;;;;;5017732;28;20222;-72
2023/10/22 11:27:40;;;;;;;4.67;3.60;;;14.40;99.90;;;;;;5009543;28;20195;-71
2023/10/22 11:30:11;;;;;;;4.07;3.53;;;14.50;99.90;;;;;;5014580;28;20251;-72
2023/10/22 11:32:48;;;;;;;4.07;3.63;;;14.50;99.90;;;;;;5009417;28;20223;-71
2023/10/22 11:35:15;;;;;;;4.23;3.40;;;14.60;99.90;;;;;;5014674;28;20211;-72
2023/10/22 11:37:43;;;;;;;5.03;4.43;;;14.60;99.90;;;;;;5009816;28;20191;-71
2023/10/22 11:40:25;;;;;;;5.17;4.33;;;14.60;99.90;;;;;;5012924;28;20306;-72
2023/10/22 11:42:53;;;;;;;4.30;3.90;;;14.60;99.90;;;;;;5009179;28;20211;-72
2023/10/22 11:45:21;;;;;;;4.43;3.73;;;14.70;99.90;;;;;;5012804;28;20192;-71
2023/10/22 11:47:49;;;;;;;3.90;3.60;;;14.70;99.90;;;;;;5011079;28;20295;-72
2023/10/22 11:50:18;;;;;;;3.60;3.30;;;14.70;99.90;;;;;;5012462;28;20199;-71
2023/10/22 11:52:52;;;;;;;3.70;3.40;;;14.70;99.90;;;;;;5017986;28;20191;-72
2023/10/22 11:55:21;;;;;;;4.27;3.83;;;14.70;99.90;;;;;;5013515;28;20270;-71
2023/10/22 11:57:50;;;;;;;5.40;4.90;;;14.70;99.90;;;;;;5012443;28;20195;-71
2023/10/22 12:00:18;;;;;;;6.30;5.40;;;14.70;99.90;;;;;;5013595;28;20555;-71
2023/10/22 12:02:46;;;;;;;5.17;4.67;;;14.70;99.90;;;;;;5009341;28;20286;-71
2023/10/22 12:05:14;;;;;;;6.60;4.97;;;14.60;99.90;;;;;;5016027;28;20248;-71
2023/10/22 12:07:41;;;;;;;5.93;4.90;;;14.60;99.90;;;;;;5014480;28;20231;-70
2023/10/22 12:10:10;;;;;;;5.30;4.53;;;14.70;99.90;;;;;;5010633;28;20198;-72
2023/10/22 12:12:37;;;;;;;5.07;4.37;;;14.60;99.90;;;;;;5010828;28;20195;-72
2023/10/22 12:15:06;;;;;;;5.30;4.80;;;14.70;99.90;;;;;;5012883;28;20261;-71
2023/10/22 12:17:33;;;;;;;10.03;7.13;;;14.70;99.90;;;;;;5013205;28;20207;-71
2023/10/22 12:20:03;;;;;;;10.07;7.47;;;14.70;99.90;;;;;;5012006;28;20278;-71
2023/10/22 12:22:33;;;;;;;7.63;6.10;;;14.70;99.90;;;;;;5012348;28;20306;-72
2023/10/22 12:25:03;;;;;;;12.13;8.53;;;14.60;99.90;;;;;;5012385;28;20203;-71
2023/10/22 12:27:31;;;;;;;12.70;7.77;;;14.60;99.90;;;;;;5011907;28;20199;-72
2023/10/22 12:30:00;;;;;;;13.97;9.57;;;14.60;99.90;;;;;;5012331;28;20207;-71
2023/10/22 12:32:30;;;;;;;12.77;8.97;;;14.60;99.90;;;;;;5010190;28;20226;-72
2023/10/22 12:34:59;;;;;;;10.90;8.37;;;14.60;99.90;;;;;;5011778;28;20337;-71
2023/10/22 12:37:28;;;;;;;9.77;7.47;;;14.60;99.90;;;;;;5012335;28;20234;-72
2023/10/22 12:39:55;;;;;;;7.53;6.03;;;14.60;99.90;;;;;;5011713;28;20258;-72
2023/10/22 12:42:22;;;;;;;10.67;8.20;;;14.60;99.90;;;;;;5012268;28;20206;-71
2023/10/22 12:44:49;;;;;;;9.90;7.43;;;14.70;99.90;;;;;;5011719;28;20199;-71
2023/10/22 12:47:17;;;;;;;15.03;10.10;;;14.70;99.90;;;;;;5018436;28;20253;-71
2023/10/22 12:49:48;;;;;;;14.77;10.00;;;14.60;99.90;;;;;;5010692;28;20224;-71